Time;durP1;ratioP1;P1;durP2;ratioP2;P2;SDS_P1;SDS_P2;PMS_P1;PMS_P2;Temp;Humidity;BMP_temperature;BMP_pressure;BME280_temperature;BME280_humidity;BME280_pressure;Samples;Min_cycle;Max_cycle;Signal;HPM_P1;HPM_P2
2022/08/02 00:00:08;;;;;;;3.33;3.03;;;17.80;99.90;;;;;;2130182;27;20026;-70
2022/08/02 00:01:09;;;;;;;5.60;3.33;;;17.80;99.90;;;;;;2127728;27;20043;-70
2022/08/02 00:02:09;;;;;;;4.50;3.63;;;17.80;99.90;;;;;;2128299;27;20036;-70
2022/08/02 00:03:10;;;;;;;4.97;3.50;;;17.70;99.90;;;;;;2129418;27;20088;-70
2022/08/02 00:04:11;;;;;;;5.55;3.13;;;17.70;99.90;;;;;;2127907;27;20010;-70
2022/08/02 00:05:12;;;;;;;5.53;3.10;;;17.70;99.90;;;;;;2127249;27;20015;-70
2022/08/02 00:06:13;;;;;;;4.22;3.20;;;17.70;99.90;;;;;;2128430;27;20022;-70
2022/08/02 00:07:14;;;;;;;5.85;3.63;;;17.70;99.90;;;;;;2129271;27;20091;-70
2022/08/02 00:08:15;;;;;;;3.55;2.80;;;17.70;99.90;;;;;;2127839;27;20015;-70
2022/08/02 00:09:15;;;;;;;4.95;3.40;;;17.70;99.90;;;;;;2130201;27;20039;-70
2022/08/02 00:10:16;;;;;;;3.75;2.70;;;17.70;99.90;;;;;;2130147;27;20524;-70
2022/08/02 00:11:16;;;;;;;5.07;3.05;;;17.60;99.90;;;;;;2126746;27;20015;-70
2022/08/02 00:12:17;;;;;;;4.93;3.65;;;17.60;99.90;;;;;;2126383;27;20023;-70
2022/08/02 00:13:18;;;;;;;5.45;2.97;;;17.60;99.90;;;;;;2127473;27;20043;-70
2022/08/02 00:14:18;;;;;;;5.03;3.00;;;17.60;99.90;;;;;;2129461;27;20019;-70
2022/08/02 00:15:19;;;;;;;4.35;2.80;;;17.60;99.90;;;;;;2125661;27;20026;-70
2022/08/02 00:16:19;;;;;;;3.90;3.08;;;17.60;99.90;;;;;;2127826;27;20026;-70
2022/08/02 00:17:20;;;;;;;6.65;3.42;;;17.60;99.90;;;;;;2129906;27;20047;-70
2022/08/02 00:18:21;;;;;;;5.15;3.38;;;17.50;99.90;;;;;;2129658;27;20039;-70
2022/08/02 00:19:21;;;;;;;4.40;3.20;;;17.50;99.90;;;;;;2127127;27;20019;-70
2022/08/02 00:20:22;;;;;;;5.88;3.13;;;17.50;99.90;;;;;;2119033;27;20416;-70
2022/08/02 00:21:22;;;;;;;4.85;3.22;;;17.50;99.90;;;;;;2119740;27;20020;-70
2022/08/02 00:22:23;;;;;;;6.22;3.33;;;17.50;99.90;;;;;;2129015;27;20117;-70
2022/08/02 00:23:23;;;;;;;5.88;3.00;;;17.50;99.90;;;;;;2127356;27;20106;-70
2022/08/02 00:24:24;;;;;;;4.90;2.88;;;17.50;99.90;;;;;;2127058;27;20430;-70
2022/08/02 00:25:25;;;;;;;5.00;2.95;;;17.50;99.90;;;;;;2129168;27;20035;-70
2022/08/02 00:26:26;;;;;;;4.32;2.95;;;17.50;99.90;;;;;;2128901;27;20019;-70
2022/08/02 00:27:27;;;;;;;3.17;2.88;;;17.40;99.90;;;;;;2129338;27;20022;-70
2022/08/02 00:28:27;;;;;;;4.25;2.75;;;17.40;99.90;;;;;;2125599;27;20027;-70
2022/08/02 00:29:29;;;;;;;5.50;3.17;;;17.40;99.90;;;;;;2126454;27;20019;-70
2022/08/02 00:30:30;;;;;;;3.92;2.63;;;17.40;99.90;;;;;;2127639;27;20381;-70
2022/08/02 00:31:31;;;;;;;4.07;3.10;;;17.40;99.90;;;;;;2126380;27;20397;-70
2022/08/02 00:32:31;;;;;;;5.63;3.53;;;17.40;99.90;;;;;;2127768;27;20105;-70
2022/08/02 00:33:32;;;;;;;5.07;3.20;;;17.40;99.90;;;;;;2124875;27;21066;-70
2022/08/02 00:34:32;;;;;;;4.97;3.42;;;17.40;99.90;;;;;;2128837;27;20415;-70
2022/08/02 00:35:36;;;;;;;4.78;2.92;;;17.40;99.90;;;;;;2129700;27;20110;-70
2022/08/02 00:36:37;;;;;;;4.38;2.90;;;17.40;99.90;;;;;;2127982;27;20022;-70
2022/08/02 00:37:39;;;;;;;4.60;2.97;;;17.40;99.90;;;;;;2127484;27;20027;-70
2022/08/02 00:38:40;;;;;;;5.20;3.20;;;17.30;99.90;;;;;;2127295;27;20034;-70
2022/08/02 00:39:41;;;;;;;10.85;3.53;;;17.30;99.90;;;;;;2128238;27;20106;-70
2022/08/02 00:40:50;;;;;;;3.58;2.60;;;17.30;99.90;;;;;;2128919;27;20023;-70
2022/08/02 00:41:52;;;;;;;4.07;2.83;;;17.30;99.90;;;;;;2126272;27;20028;-70
2022/08/02 00:43:10;;;;;;;3.67;2.78;;;17.30;99.90;;;;;;2127310;27;20055;-70
2022/08/02 00:44:10;;;;;;;4.47;3.22;;;17.30;99.90;;;;;;2127311;27;20603;-70
2022/08/02 00:45:11;;;;;;;4.82;3.15;;;17.30;99.90;;;;;;2129374;27;20378;-70
2022/08/02 00:46:12;;;;;;;3.88;2.72;;;17.30;99.90;;;;;;2125517;27;20153;-70
2022/08/02 00:47:12;;;;;;;7.32;3.40;;;17.20;99.90;;;;;;2126292;27;20015;-70
2022/08/02 00:48:13;;;;;;;3.90;2.80;;;17.30;99.90;;;;;;2127896;27;20015;-70
2022/08/02 00:49:14;;;;;;;5.53;2.88;;;17.30;99.90;;;;;;2127267;27;20021;-70
2022/08/02 00:50:15;;;;;;;4.53;2.85;;;17.20;99.90;;;;;;2127038;27;20030;-70
2022/08/02 00:51:16;;;;;;;5.72;3.00;;;17.20;99.90;;;;;;2124748;27;20072;-70
2022/08/02 00:52:16;;;;;;;2.78;2.53;;;17.20;99.90;;;;;;2128527;27;20473;-70
2022/08/02 00:53:17;;;;;;;7.10;2.70;;;17.20;99.90;;;;;;2127591;27;21153;-70
2022/08/02 00:54:17;;;;;;;4.38;3.25;;;17.20;99.90;;;;;;2128363;27;20015;-70
2022/08/02 00:55:19;;;;;;;6.82;3.17;;;17.20;99.90;;;;;;2128903;27;20088;-70
2022/08/02 00:56:19;;;;;;;5.00;2.85;;;17.20;99.90;;;;;;2127966;27;20043;-70
2022/08/02 00:57:20;;;;;;;4.20;2.88;;;17.20;99.90;;;;;;2125651;27;20027;-70
2022/08/02 00:58:21;;;;;;;5.32;2.83;;;17.20;99.90;;;;;;2127619;27;20025;-70
2022/08/02 00:59:21;;;;;;;3.65;3.10;;;17.20;99.90;;;;;;2128365;27;20023;-70
2022/08/02 01:00:22;;;;;;;7.40;3.13;;;17.20;99.90;;;;;;2127800;27;20011;-70
2022/08/02 01:01:37;;;;;;;6.35;3.28;;;17.20;99.90;;;;;;2129497;27;20019;-70
2022/08/02 01:02:38;;;;;;;4.80;3.55;;;17.20;99.90;;;;;;2126096;27;20035;-70
2022/08/02 01:03:39;;;;;;;4.50;3.10;;;17.20;99.90;;;;;;2127538;27;20640;-70
2022/08/02 01:04:39;;;;;;;4.35;2.90;;;17.20;99.90;;;;;;2127192;27;20110;-70
2022/08/02 01:05:40;;;;;;;11.85;3.85;;;17.10;99.90;;;;;;2126885;27;20020;-70
2022/08/02 01:06:41;;;;;;;5.82;3.75;;;17.10;99.90;;;;;;2119974;28;20031;-70
2022/08/02 01:07:42;;;;;;;5.47;4.05;;;17.10;99.90;;;;;;2118726;27;20020;-71
2022/08/02 01:08:43;;;;;;;4.85;3.63;;;17.10;99.90;;;;;;2120545;28;20027;-71
2022/08/02 01:09:44;;;;;;;6.63;3.70;;;17.10;99.90;;;;;;2121561;28;20038;-71
2022/08/02 01:10:45;;;;;;;4.80;3.85;;;17.10;99.90;;;;;;2128350;27;20065;-70
2022/08/02 01:11:45;;;;;;;5.15;3.20;;;17.10;99.90;;;;;;2124318;27;20026;-70
2022/08/02 01:12:46;;;;;;;4.72;3.33;;;17.10;99.90;;;;;;2128612;27;20023;-70
2022/08/02 01:13:47;;;;;;;8.13;3.55;;;17.10;99.90;;;;;;2129327;27;20023;-70
2022/08/02 01:14:52;;;;;;;5.43;3.95;;;17.10;99.90;;;;;;2125234;27;20068;-70
2022/08/02 01:16:00;;;;;;;5.45;3.88;;;17.10;99.90;;;;;;2128219;27;20031;-70
2022/08/02 01:17:07;;;;;;;5.35;3.80;;;17.10;99.90;;;;;;2127987;27;20065;-70
2022/08/02 01:18:21;;;;;;;6.82;3.90;;;17.10;99.90;;;;;;2127163;27;20023;-70
2022/08/02 01:19:32;;;;;;;6.25;3.83;;;17.10;99.90;;;;;;2128925;27;20010;-70
2022/08/02 01:20:51;;;;;;;;;;;17.00;99.90;;;;;;2115369;28;20020;-70
2022/08/02 01:22:04;;;;;;;4.28;3.83;;;17.00;99.90;;;;;;2118556;27;19907;-70
2022/08/02 01:23:31;;;;;;;5.20;3.53;;;17.00;99.90;;;;;;2127663;27;20022;-70
2022/08/02 01:26:18;;;;;;;7.20;3.88;;;17.00;99.90;;;;;;2085870;28;20136;-70
2022/08/02 01:27:36;;;;;;;6.07;3.42;;;16.90;99.90;;;;;;2086792;28;20060;-70
2022/08/02 01:28:56;;;;;;;5.07;3.42;;;16.90;99.90;;;;;;2090397;28;20060;-70
2022/08/02 01:30:00;;;;;;;7.18;3.63;;;16.90;99.90;;;;;;2083154;28;20062;-70
2022/08/02 01:31:20;;;;;;;4.63;3.92;;;16.90;99.90;;;;;;2082847;28;20037;-70
2022/08/02 01:32:27;;;;;;;5.07;3.78;;;16.90;99.90;;;;;;2081341;28;20013;-70
2022/08/02 01:33:34;;;;;;;7.70;3.92;;;16.90;99.90;;;;;;2084643;28;20075;-70
2022/08/02 01:34:59;;;;;;;5.55;4.40;;;16.90;99.90;;;;;;2081374;28;20036;-70
2022/08/02 01:36:02;;;;;;;4.53;3.90;;;16.90;99.90;;;;;;2078955;28;20022;-70
2022/08/02 01:37:18;;;;;;;4.30;3.70;;;16.90;99.90;;;;;;2082726;28;20056;-70
2022/08/02 01:38:38;;;;;;;4.88;3.72;;;16.90;99.90;;;;;;2077018;28;20041;-70
2022/08/02 01:39:41;;;;;;;;;;;16.90;99.90;;;;;;2082667;28;20735;-70
2022/08/02 01:40:44;;;;;;;5.25;3.78;;;16.80;99.90;;;;;;2080233;28;20007;-70
2022/08/02 01:41:46;;;;;;;6.55;3.60;;;16.80;99.90;;;;;;2082648;28;20087;-70
2022/08/02 01:42:51;;;;;;;4.15;3.75;;;16.80;99.90;;;;;;2082665;28;20036;-70
2022/08/02 01:43:56;;;;;;;6.63;4.00;;;16.80;99.90;;;;;;2079132;28;20068;-70
2022/08/02 01:45:00;;;;;;;5.53;3.90;;;16.80;99.90;;;;;;2077785;28;20014;-70
2022/08/02 01:46:01;;;;;;;5.47;4.38;;;16.90;99.90;;;;;;2079732;28;20025;-70
2022/08/02 01:47:09;;;;;;;4.25;3.70;;;16.90;99.90;;;;;;2081214;28;20029;-70
2022/08/02 01:48:11;;;;;;;5.90;3.92;;;16.90;99.90;;;;;;2083101;28;20023;-70
2022/08/02 01:49:17;;;;;;;4.47;3.63;;;16.90;99.90;;;;;;2079803;28;20022;-70
2022/08/02 01:50:25;;;;;;;4.97;3.40;;;16.90;99.90;;;;;;2078483;28;20543;-70
2022/08/02 01:52:48;;;;;;;;;;;16.90;99.90;;;;;;2080752;28;20025;-70
2022/08/02 01:53:50;;;;;;;8.25;3.50;;;16.80;99.90;;;;;;2078730;28;19909;-70
2022/08/02 01:55:01;;;;;;;4.47;3.28;;;16.80;99.90;;;;;;2077461;28;20575;-70
2022/08/02 01:56:04;;;;;;;8.25;3.53;;;16.80;99.90;;;;;;2080191;28;20029;-70
2022/08/02 01:57:09;;;;;;;3.95;3.35;;;16.80;99.90;;;;;;2083498;28;20022;-70
2022/08/02 01:58:13;;;;;;;5.57;3.65;;;16.80;99.90;;;;;;2080223;28;20022;-70
2022/08/02 01:59:19;;;;;;;5.07;3.08;;;16.80;99.90;;;;;;2080499;28;20021;-70
2022/08/02 02:00:23;;;;;;;6.25;3.60;;;16.90;99.90;;;;;;2080037;28;20104;-70
2022/08/02 02:01:24;;;;;;;4.57;3.22;;;16.80;99.90;;;;;;2079043;28;20022;-70
2022/08/02 02:02:25;;;;;;;3.78;3.33;;;16.80;99.90;;;;;;2078656;28;20014;-70
2022/08/02 02:03:27;;;;;;;4.28;3.15;;;16.90;99.90;;;;;;2080801;28;20056;-70
2022/08/02 02:04:30;;;;;;;6.65;3.47;;;16.90;99.90;;;;;;2082806;28;20079;-71
2022/08/02 02:05:32;;;;;;;3.13;2.75;;;16.90;99.90;;;;;;2080292;28;20481;-70
2022/08/02 02:06:35;;;;;;;5.63;2.78;;;16.90;99.90;;;;;;2082136;28;20022;-70
2022/08/02 02:07:38;;;;;;;5.30;3.35;;;16.90;99.90;;;;;;2079890;28;20021;-70
2022/08/02 02:08:41;;;;;;;7.13;3.80;;;16.80;99.90;;;;;;2080626;28;20092;-70
2022/08/02 02:09:43;;;;;;;5.15;3.42;;;16.90;99.90;;;;;;2080846;28;20932;-70
2022/08/02 02:10:44;;;;;;;4.68;3.35;;;16.80;99.90;;;;;;2079511;28;20114;-70
2022/08/02 02:11:47;;;;;;;9.43;4.10;;;16.90;99.90;;;;;;2082186;28;20017;-70
2022/08/02 02:12:50;;;;;;;5.57;3.40;;;16.80;99.90;;;;;;2080090;28;20014;-70
2022/08/02 02:13:51;;;;;;;5.32;3.03;;;16.80;99.90;;;;;;2079514;28;20337;-70
2022/08/02 02:14:54;;;;;;;3.78;3.45;;;16.80;99.90;;;;;;2081296;28;20037;-70
2022/08/02 02:15:57;;;;;;;7.13;3.55;;;16.80;99.90;;;;;;2081084;28;20563;-70
2022/08/02 02:16:59;;;;;;;3.45;3.15;;;16.80;99.90;;;;;;2078993;28;20033;-70
2022/08/02 02:18:01;;;;;;;4.75;2.95;;;16.80;99.90;;;;;;2081977;28;20018;-70
2022/08/02 02:19:03;;;;;;;7.15;3.38;;;16.80;99.90;;;;;;2078491;28;20390;-70
2022/08/02 02:20:04;;;;;;;6.20;3.05;;;16.80;99.90;;;;;;2077902;28;20493;-70
2022/08/02 02:21:06;;;;;;;4.78;3.53;;;16.80;99.90;;;;;;2078537;28;20022;-70
2022/08/02 02:22:07;;;;;;;4.35;3.65;;;16.80;99.90;;;;;;2081944;28;20025;-70
2022/08/02 02:23:08;;;;;;;4.07;3.28;;;16.80;99.90;;;;;;2081528;28;20028;-70
2022/08/02 02:24:09;;;;;;;4.70;3.28;;;16.80;99.90;;;;;;2079509;28;20029;-70
2022/08/02 02:25:12;;;;;;;7.50;3.40;;;16.80;99.90;;;;;;2080075;28;20029;-70
2022/08/02 02:26:15;;;;;;;6.53;3.45;;;16.80;99.90;;;;;;2080364;28;20060;-70
2022/08/02 02:27:16;;;;;;;4.60;3.42;;;16.80;99.90;;;;;;2080640;28;20099;-70
2022/08/02 02:28:28;;;;;;;5.97;3.42;;;16.80;99.90;;;;;;2078487;28;20048;-70
2022/08/02 02:29:31;;;;;;;5.32;3.67;;;16.80;99.90;;;;;;2081867;28;20017;-70
2022/08/02 02:30:33;;;;;;;5.13;3.40;;;16.80;99.90;;;;;;2081399;28;20020;-70
2022/08/02 02:31:39;;;;;;;4.95;2.97;;;16.70;99.90;;;;;;2082397;28;20014;-70
2022/08/02 02:32:42;;;;;;;4.95;3.20;;;16.70;99.90;;;;;;2080745;28;20037;-70
2022/08/02 02:33:55;;;;;;;3.33;3.03;;;16.70;99.90;;;;;;2079901;28;20013;-70
2022/08/02 02:34:58;;;;;;;3.28;2.53;;;16.70;99.90;;;;;;2076495;28;20064;-70
2022/08/02 02:36:01;;;;;;;4.63;2.80;;;16.70;99.90;;;;;;2081270;28;20026;-70
2022/08/02 02:37:04;;;;;;;4.68;3.22;;;16.70;99.90;;;;;;2073808;28;20114;-70
2022/08/02 02:38:09;;;;;;;4.47;3.30;;;16.70;99.90;;;;;;2079057;28;20101;-70
2022/08/02 02:39:13;;;;;;;5.75;3.47;;;16.70;99.90;;;;;;2076997;28;20026;-70
2022/08/02 02:40:15;;;;;;;5.68;3.17;;;16.70;99.90;;;;;;2073891;28;20061;-71
2022/08/02 02:41:17;;;;;;;2.70;2.47;;;16.60;99.90;;;;;;2074336;28;20026;-71
2022/08/02 02:42:22;;;;;;;3.38;2.90;;;16.60;99.90;;;;;;2075993;28;20036;-71
2022/08/02 02:43:26;;;;;;;3.53;2.95;;;16.60;99.90;;;;;;2076034;28;20025;-71
2022/08/02 02:44:29;;;;;;;4.20;3.03;;;16.60;99.90;;;;;;2074270;28;20018;-71
2022/08/02 02:45:32;;;;;;;3.85;2.58;;;16.60;99.90;;;;;;2075366;28;20025;-71
2022/08/02 02:46:33;;;;;;;4.40;2.88;;;16.60;99.90;;;;;;2076590;28;20052;-71
2022/08/02 02:47:35;;;;;;;4.72;3.42;;;16.60;99.90;;;;;;2076872;28;20080;-71
2022/08/02 02:48:36;;;;;;;5.03;3.35;;;16.60;99.90;;;;;;2077392;28;20014;-71
2022/08/02 02:49:38;;;;;;;3.15;2.85;;;16.60;99.90;;;;;;2075883;28;20025;-71
2022/08/02 02:50:40;;;;;;;4.88;3.17;;;16.60;99.90;;;;;;2075035;28;20021;-71
2022/08/02 02:51:41;;;;;;;4.50;3.35;;;16.60;99.90;;;;;;2074382;28;20028;-71
2022/08/02 02:52:43;;;;;;;4.03;3.47;;;16.60;99.90;;;;;;2074572;28;20022;-70
2022/08/02 02:53:47;;;;;;;3.33;3.03;;;16.50;99.90;;;;;;2074081;28;20156;-70
2022/08/02 02:54:50;;;;;;;3.72;3.15;;;16.50;99.90;;;;;;2071075;28;20029;-70
2022/08/02 02:55:52;;;;;;;8.60;3.25;;;16.50;99.90;;;;;;2074624;28;20142;-70
2022/08/02 02:56:53;;;;;;;8.00;3.13;;;16.50;99.90;;;;;;2074893;28;20428;-71
2022/08/02 02:57:55;;;;;;;3.90;3.33;;;16.50;99.90;;;;;;2072329;28;20026;-71
2022/08/02 02:58:56;;;;;;;4.18;3.17;;;16.50;99.90;;;;;;2075064;28;20022;-71
2022/08/02 02:59:57;;;;;;;5.47;3.17;;;16.50;99.90;;;;;;2073109;28;20033;-71
2022/08/02 03:02:18;;;;;;;3.43;3.13;;;16.50;99.90;;;;;;2075483;28;20523;-71
2022/08/02 03:03:19;;;;;;;3.78;3.10;;;16.50;99.90;;;;;;2074794;28;20257;-71
2022/08/02 03:04:21;;;;;;;3.00;2.70;;;16.40;99.90;;;;;;2078670;28;20013;-71
2022/08/02 03:05:21;;;;;;;5.72;3.67;;;16.50;99.90;;;;;;2073291;28;20424;-70
2022/08/02 03:06:22;;;;;;;4.40;2.80;;;16.40;99.90;;;;;;2073821;28;20030;-71
2022/08/02 03:07:23;;;;;;;4.38;2.60;;;16.40;99.90;;;;;;2074201;28;20030;-71
2022/08/02 03:08:24;;;;;;;4.22;3.00;;;16.40;99.90;;;;;;2074921;28;20022;-70
2022/08/02 03:09:25;;;;;;;3.40;3.10;;;16.40;99.90;;;;;;2073645;28;20018;-70
2022/08/02 03:10:26;;;;;;;3.55;2.80;;;16.40;99.90;;;;;;2074973;28;20109;-71
2022/08/02 03:11:30;;;;;;;3.42;2.70;;;16.40;99.90;;;;;;2075448;28;20022;-71
2022/08/02 03:12:33;;;;;;;5.97;3.00;;;16.40;99.90;;;;;;2071822;28;20026;-71
2022/08/02 03:13:34;;;;;;;3.30;3.00;;;16.40;99.90;;;;;;2073057;28;20061;-71
2022/08/02 03:14:39;;;;;;;3.35;3.05;;;16.30;99.90;;;;;;2074327;28;20032;-70
2022/08/02 03:15:40;;;;;;;5.18;2.97;;;16.30;99.90;;;;;;2074267;28;20120;-70
2022/08/02 03:16:49;;;;;;;6.38;3.13;;;16.30;99.90;;;;;;2074696;28;20470;-71
2022/08/02 03:17:49;;;;;;;3.15;2.70;;;16.30;99.90;;;;;;2074131;28;20033;-71
2022/08/02 03:18:50;;;;;;;5.13;3.30;;;16.30;99.90;;;;;;2076741;28;20034;-71
2022/08/02 03:19:50;;;;;;;3.90;3.10;;;16.30;99.90;;;;;;2076518;28;20076;-71
2022/08/02 03:20:51;;;;;;;4.68;3.00;;;16.30;99.90;;;;;;2074206;28;20032;-70
2022/08/02 03:21:51;;;;;;;4.43;3.08;;;16.30;99.90;;;;;;2075776;28;20452;-70
2022/08/02 03:22:52;;;;;;;3.30;2.92;;;16.30;99.90;;;;;;2072800;28;20017;-70
2022/08/02 03:23:52;;;;;;;4.55;2.88;;;16.30;99.90;;;;;;2073748;28;20072;-70
2022/08/02 03:24:53;;;;;;;3.45;2.33;;;16.30;99.90;;;;;;2071862;28;20034;-70
2022/08/02 03:25:53;;;;;;;5.72;3.30;;;16.20;99.90;;;;;;2076275;28;20030;-71
2022/08/02 03:26:54;;;;;;;3.38;2.90;;;16.30;99.90;;;;;;2074784;28;20473;-71
2022/08/02 03:27:55;;;;;;;5.05;2.92;;;16.20;99.90;;;;;;2075846;28;20053;-71
2022/08/02 03:28:55;;;;;;;5.53;2.75;;;16.20;99.90;;;;;;2074473;28;20053;-71
2022/08/02 03:29:56;;;;;;;5.75;3.15;;;16.20;99.90;;;;;;2076688;28;20026;-71
2022/08/02 03:30:57;;;;;;;4.03;2.90;;;16.20;99.90;;;;;;2075521;28;20018;-71
2022/08/02 03:31:57;;;;;;;4.28;2.92;;;16.20;99.90;;;;;;2074054;28;20421;-71
2022/08/02 03:32:58;;;;;;;4.70;2.67;;;16.20;99.90;;;;;;2072950;28;20438;-71
2022/08/02 03:34:01;;;;;;;5.97;2.83;;;16.20;99.90;;;;;;2073137;28;20059;-71
2022/08/02 03:35:03;;;;;;;4.20;2.90;;;16.20;99.90;;;;;;2075056;28;20480;-71
2022/08/02 03:36:11;;;;;;;3.92;2.60;;;16.20;99.90;;;;;;2073487;28;20025;-71
2022/08/02 03:37:11;;;;;;;3.42;2.40;;;16.10;99.90;;;;;;2075095;28;20026;-71
2022/08/02 03:38:15;;;;;;;5.75;2.80;;;16.20;99.90;;;;;;2073525;28;20056;-71
2022/08/02 03:39:18;;;;;;;4.68;2.72;;;16.10;99.90;;;;;;2076049;28;20033;-71
2022/08/02 03:40:19;;;;;;;3.67;2.95;;;16.20;99.90;;;;;;2073224;28;20025;-71
2022/08/02 03:41:21;;;;;;;3.80;2.58;;;16.20;99.90;;;;;;2075450;28;20494;-71
2022/08/02 03:42:24;;;;;;;5.85;3.33;;;16.10;99.90;;;;;;2074209;28;20033;-71
2022/08/02 03:43:25;;;;;;;3.85;2.67;;;16.20;99.90;;;;;;2075197;28;20409;-71
2022/08/02 03:44:26;;;;;;;4.80;2.80;;;16.20;99.90;;;;;;2075160;28;20061;-71
2022/08/02 03:45:27;;;;;;;5.53;3.22;;;16.20;99.90;;;;;;2075417;28;20057;-71
2022/08/02 03:46:28;;;;;;;4.63;2.97;;;16.10;99.90;;;;;;2075938;28;20018;-71
2022/08/02 03:47:29;;;;;;;3.28;3.00;;;16.10;99.90;;;;;;2073925;28;20029;-71
2022/08/02 03:48:32;;;;;;;5.60;3.17;;;16.10;99.90;;;;;;2074927;28;20030;-71
2022/08/02 03:49:35;;;;;;;3.67;2.95;;;16.10;99.90;;;;;;2072921;28;20831;-71
2022/08/02 03:50:36;;;;;;;5.47;2.95;;;16.10;99.90;;;;;;2075452;28;20025;-71
2022/08/02 03:51:38;;;;;;;3.10;2.70;;;16.10;99.90;;;;;;2073917;28;20014;-70
2022/08/02 03:52:42;;;;;;;7.65;3.08;;;16.10;99.90;;;;;;2075933;28;20032;-70
2022/08/02 03:53:43;;;;;;;5.95;3.30;;;16.10;99.90;;;;;;2071731;28;20509;-70
2022/08/02 03:54:44;;;;;;;4.68;2.90;;;16.10;99.90;;;;;;2073181;28;20366;-70
2022/08/02 03:55:46;;;;;;;4.43;2.80;;;16.10;99.90;;;;;;2073685;28;20508;-70
2022/08/02 03:56:46;;;;;;;3.70;2.67;;;16.10;99.90;;;;;;2075995;28;20053;-70
2022/08/02 03:57:47;;;;;;;3.83;2.85;;;16.10;99.90;;;;;;2074808;28;20026;-70
2022/08/02 03:58:48;;;;;;;3.03;2.72;;;16.00;99.90;;;;;;2075963;28;20025;-70
2022/08/02 03:59:48;;;;;;;2.95;2.75;;;16.00;99.90;;;;;;2074862;28;20034;-70
2022/08/02 04:00:51;;;;;;;5.28;3.00;;;16.00;99.90;;;;;;2076458;28;20884;-70
2022/08/02 04:01:52;;;;;;;4.80;2.80;;;16.00;99.90;;;;;;2075217;28;20033;-70
2022/08/02 04:02:53;;;;;;;4.45;3.50;;;16.00;99.90;;;;;;2075733;28;20025;-70
2022/08/02 04:03:53;;;;;;;4.32;2.83;;;16.00;99.90;;;;;;2075887;28;20025;-70
2022/08/02 04:04:54;;;;;;;3.13;2.42;;;16.00;99.90;;;;;;2077905;28;20481;-70
2022/08/02 04:05:54;;;;;;;3.38;3.05;;;16.00;99.90;;;;;;2073965;28;20025;-71
2022/08/02 04:06:55;;;;;;;5.18;2.80;;;16.00;99.90;;;;;;2075986;28;20103;-71
2022/08/02 04:07:56;;;;;;;3.35;3.05;;;16.00;99.90;;;;;;2073524;28;20149;-71
2022/08/02 04:08:57;;;;;;;3.63;3.28;;;16.00;99.90;;;;;;2075342;28;20018;-71
2022/08/02 04:09:57;;;;;;;4.22;3.47;;;16.00;99.90;;;;;;2075308;28;20022;-71
2022/08/02 04:12:17;;;;;;;3.42;2.97;;;16.00;99.90;;;;;;2075662;28;20022;-70
2022/08/02 04:13:20;;;;;;;4.00;3.08;;;16.00;99.90;;;;;;2075324;28;20025;-70
2022/08/02 04:14:21;;;;;;;3.80;2.90;;;16.00;99.90;;;;;;2075826;28;20072;-70
2022/08/02 04:15:22;;;;;;;3.60;3.30;;;16.00;99.90;;;;;;2076777;28;20132;-70
2022/08/02 04:16:41;;;;;;;3.42;2.90;;;16.00;99.90;;;;;;2074492;28;20029;-70
2022/08/02 04:17:48;;;;;;;3.25;2.45;;;16.00;99.90;;;;;;2073481;28;20104;-70
2022/08/02 04:19:02;;;;;;;5.68;3.15;;;16.00;99.90;;;;;;2073230;28;20064;-70
2022/08/02 04:20:17;;;;;;;3.38;3.00;;;16.00;99.90;;;;;;2072039;28;20083;-70
2022/08/02 04:21:20;;;;;;;3.80;3.05;;;16.00;99.90;;;;;;2068684;28;20018;-70
2022/08/02 04:22:36;;;;;;;3.08;2.70;;;16.00;99.90;;;;;;2075752;28;20104;-70
2022/08/02 04:23:37;;;;;;;3.83;2.85;;;16.00;99.90;;;;;;2072140;28;20026;-70
2022/08/02 04:24:43;;;;;;;5.70;3.10;;;16.00;99.90;;;;;;2074670;28;20061;-70
2022/08/02 04:25:44;;;;;;;3.17;2.85;;;16.00;99.90;;;;;;2074090;28;20068;-70
2022/08/02 04:26:46;;;;;;;4.97;3.25;;;16.00;99.90;;;;;;2075096;28;20026;-70
2022/08/02 04:27:47;;;;;;;5.80;2.80;;;16.00;99.90;;;;;;2074376;28;20045;-71
2022/08/02 04:28:48;;;;;;;2.78;2.58;;;16.00;99.90;;;;;;2074584;28;20058;-70
2022/08/02 04:29:49;;;;;;;5.00;2.90;;;16.10;99.90;;;;;;2075612;28;20017;-70
2022/08/02 04:30:50;;;;;;;5.50;3.38;;;16.10;99.90;;;;;;2074382;28;20030;-71
2022/08/02 04:31:51;;;;;;;4.50;3.20;;;16.10;99.90;;;;;;2074707;28;20029;-71
2022/08/02 04:32:52;;;;;;;3.30;3.00;;;16.10;99.90;;;;;;2075960;28;20022;-71
2022/08/02 04:33:53;;;;;;;4.88;3.70;;;16.10;99.90;;;;;;2072358;28;20025;-71
2022/08/02 04:34:54;;;;;;;5.82;3.92;;;16.10;99.90;;;;;;2074336;28;20014;-71
2022/08/02 04:35:57;;;;;;;4.63;3.45;;;16.10;99.90;;;;;;2073290;28;20485;-71
2022/08/02 04:36:58;;;;;;;3.08;2.78;;;16.10;99.90;;;;;;2071285;28;20058;-71
2022/08/02 04:38:00;;;;;;;5.18;3.22;;;16.10;99.90;;;;;;2073664;28;20026;-71
2022/08/02 04:39:00;;;;;;;3.83;3.05;;;16.20;99.90;;;;;;2074839;28;20105;-71
2022/08/02 04:40:01;;;;;;;4.80;3.28;;;16.10;99.90;;;;;;2075722;28;20033;-71
2022/08/02 04:41:01;;;;;;;4.85;3.42;;;16.20;99.90;;;;;;2077074;28;20083;-71
2022/08/02 04:42:02;;;;;;;3.67;3.13;;;16.20;99.90;;;;;;2073479;28;20033;-71
2022/08/02 04:43:03;;;;;;;3.47;3.10;;;16.20;99.90;;;;;;2073204;28;20021;-71
2022/08/02 04:44:04;;;;;;;4.90;3.30;;;16.20;99.90;;;;;;2072900;28;20393;-71
2022/08/02 04:45:06;;;;;;;4.55;3.60;;;16.20;99.90;;;;;;2073680;28;20104;-71
2022/08/02 04:46:06;;;;;;;6.85;3.72;;;16.20;99.90;;;;;;2072777;28;20053;-70
2022/08/02 04:47:07;;;;;;;3.95;3.47;;;16.20;99.90;;;;;;2073826;28;20025;-70
2022/08/02 04:48:07;;;;;;;4.18;3.20;;;16.30;99.90;;;;;;2071934;28;20024;-70
2022/08/02 04:49:08;;;;;;;4.72;4.00;;;16.30;99.90;;;;;;2075488;28;20029;-70
2022/08/02 04:50:09;;;;;;;3.92;3.50;;;16.30;99.90;;;;;;2074428;28;20056;-70
2022/08/02 04:51:10;;;;;;;6.07;3.85;;;16.30;99.90;;;;;;2076351;28;20060;-70
2022/08/02 04:52:10;;;;;;;4.57;3.90;;;16.40;99.90;;;;;;2072686;28;20025;-70
2022/08/02 04:53:11;;;;;;;4.20;3.42;;;16.30;99.90;;;;;;2072023;28;20030;-70
2022/08/02 04:54:12;;;;;;;5.88;3.72;;;16.40;99.90;;;;;;2073015;28;20438;-70
2022/08/02 04:55:13;;;;;;;3.90;3.45;;;16.40;99.90;;;;;;2072622;28;20029;-70
2022/08/02 04:56:14;;;;;;;4.43;3.50;;;16.40;99.90;;;;;;2074970;28;20029;-71
2022/08/02 04:58:33;;;;;;;4.80;3.45;;;16.50;99.90;;;;;;2074864;28;20484;-70
2022/08/02 04:59:34;;;;;;;4.10;3.40;;;16.50;99.90;;;;;;2075753;28;20452;-70
2022/08/02 05:00:34;;;;;;;4.05;3.17;;;16.60;99.90;;;;;;2074582;28;20049;-70
2022/08/02 05:01:35;;;;;;;5.22;3.70;;;16.60;99.90;;;;;;2074279;28;20025;-70
2022/08/02 05:02:35;;;;;;;5.53;3.75;;;16.60;99.90;;;;;;2073065;28;20510;-71
2022/08/02 05:03:36;;;;;;;3.78;3.30;;;16.70;99.90;;;;;;2072059;28;20396;-71
2022/08/02 05:04:37;;;;;;;5.65;3.85;;;16.70;99.90;;;;;;2074245;28;20034;-72
2022/08/02 05:05:37;;;;;;;5.53;3.90;;;16.70;99.90;;;;;;2077192;28;20025;-71
2022/08/02 05:06:38;;;;;;;3.85;3.38;;;16.80;99.90;;;;;;2073279;28;20033;-71
2022/08/02 05:07:39;;;;;;;5.38;3.97;;;16.80;99.90;;;;;;2074934;28;20034;-71
2022/08/02 05:08:39;;;;;;;4.82;3.72;;;16.90;99.90;;;;;;2074736;28;20030;-71
2022/08/02 05:09:40;;;;;;;3.72;3.40;;;16.90;99.90;;;;;;2076196;28;20041;-71
2022/08/02 05:10:40;;;;;;;3.78;3.45;;;17.00;99.90;;;;;;2073947;28;20030;-71
2022/08/02 05:11:41;;;;;;;3.92;3.58;;;17.00;99.90;;;;;;2073790;28;20096;-71
2022/08/02 05:12:42;;;;;;;3.90;3.58;;;17.00;99.90;;;;;;2073330;28;20025;-71
2022/08/02 05:13:43;;;;;;;7.38;4.15;;;17.10;99.90;;;;;;2075020;28;20049;-71
2022/08/02 05:14:43;;;;;;;3.60;3.30;;;17.20;99.90;;;;;;2075106;28;20014;-71
2022/08/02 05:15:47;;;;;;;5.93;3.65;;;17.20;99.90;;;;;;2075233;28;20025;-71
2022/08/02 05:16:48;;;;;;;5.05;3.80;;;17.30;99.90;;;;;;2072478;28;20064;-71
2022/08/02 05:17:48;;;;;;;3.50;3.20;;;17.30;99.90;;;;;;2073877;28;20022;-71
2022/08/02 05:18:49;;;;;;;4.80;3.17;;;17.40;99.90;;;;;;2072968;28;20034;-71
2022/08/02 05:19:50;;;;;;;4.25;3.03;;;17.50;99.90;;;;;;2072927;28;20053;-71
2022/08/02 05:20:50;;;;;;;3.92;2.97;;;17.50;99.90;;;;;;2072635;28;20022;-71
2022/08/02 05:21:51;;;;;;;3.33;3.03;;;17.60;99.90;;;;;;2073147;28;21190;-71
2022/08/02 05:22:52;;;;;;;4.65;3.30;;;17.70;99.90;;;;;;2076528;28;20021;-71
2022/08/02 05:23:52;;;;;;;6.13;3.70;;;17.80;99.90;;;;;;2075519;28;20029;-71
2022/08/02 05:24:53;;;;;;;4.32;3.45;;;17.90;99.90;;;;;;2074139;28;20105;-71
2022/08/02 05:25:53;;;;;;;5.00;3.17;;;17.90;99.90;;;;;;2073504;28;20022;-71
2022/08/02 05:26:54;;;;;;;3.38;3.08;;;18.00;99.90;;;;;;2072152;28;21213;-71
2022/08/02 05:27:54;;;;;;;3.28;2.70;;;18.10;99.90;;;;;;2073931;28;20025;-71
2022/08/02 05:28:55;;;;;;;5.15;3.47;;;18.10;99.90;;;;;;2072428;28;20408;-71
2022/08/02 05:29:57;;;;;;;5.80;3.60;;;18.20;99.90;;;;;;2073504;28;20018;-71
2022/08/02 05:30:57;;;;;;;3.97;3.55;;;18.20;99.90;;;;;;2072169;28;20098;-71
2022/08/02 05:31:58;;;;;;;4.78;3.30;;;18.20;99.90;;;;;;2073605;28;20504;-71
2022/08/02 05:32:58;;;;;;;5.90;3.22;;;18.30;99.90;;;;;;2074132;28;20025;-71